This demonstration page uses our WeatherBlox Daily Observations layout. Learn more.

41.55636, -103.73856

Hourly Observations for January 20, 2019

Temp ( °F °C ) Dew Point ( °F °C ) Humidity (%) Winds ( mph kmh ) Pressure ( in mb ) Visibility ( mi km ) Precip ( " mm )
12:53 am 00:53 Clear 31 -0.6 24 -4.4 76 76 NNW 5 7 30.03 1017 10 16.09344 0 0
1:53 am 01:53 Clear 30 -1.1 25 -3.9 82 82 NNW 7 11 30.03 1017 10 16.09344 0 0
2:53 am 02:53 Clear 40 4.4 30 -1.1 68 68 WNW 12 19 30 1016 10 16.09344 0 0
3:53 am 03:53 Mostly Clear 41 5 30 -1.1 65 65 WNW 12 19 29.97 1015 10 16.09344 0 0
4:53 am 04:53 Cloudy 40 4.4 30 -1.1 68 68 NW 9 15 30 1016 10 16.09344 0 0
5:53 am 05:53 Cloudy 42 5.6 31 -0.6 65 65 NNW 9 15 30 1016 10 16.09344 0 0
6:53 am 06:53 Mostly Cloudy 39 3.9 29 -1.7 67 67 N 13 20 30.03 1017 10 16.09344 0 0
7:53 am 07:53 Sunny 35 1.7 27 -2.8 72 72 WSW 5 7 30.09 1019 10 16.09344 0 0
8:53 am 08:53 Mostly Cloudy 40 4.4 29 -1.7 65 65 WSW 5 7 30.09 1019 10 16.09344 0 0
9:53 am 09:53 Mostly Sunny 44 6.7 31 -0.6 60 60 WSW 6 9 30.09 1019 10 16.09344 0 0
10:53 am 10:53 Partly Cloudy 46 7.8 32 0 58 58 Calm 30.09 1019 10 16.09344 0 0
11:53 am 11:53 Mostly Cloudy 50 10 33 0.6 52 52 Calm 30.03 1017 10 16.09344 0 0
12:53 pm 12:53 Sunny 51 10.6 33 0.6 50 50 S 6 9 29.97 1015 10 16.09344 0 0
1:53 pm 13:53 Sunny 52 11.1 33 0.6 49 49 VRB 3 6 29.94 1014 10 16.09344 0 0
2:53 pm 14:53 Sunny 52 11.1 32 0 47 47 Calm 29.91 1013 10 16.09344 0 0
3:53 pm 15:53 Sunny 50 10 32 0 50 50 ESE 6 9 29.88 1012 10 16.09344 0 0
4:53 pm 16:53 Sunny 44 6.7 29 -1.7 55 55 ESE 6 9 29.88 1012 10 16.09344 0 0
5:53 pm 17:53 Clear 38 3.3 28 -2.2 68 68 ESE 8 13 29.88 1012 10 16.09344 0 0
6:53 pm 18:53 Clear 40 4.4 30 -1.1 68 68 ESE 9 15 29.88 1012 10 16.09344 0 0
7:53 pm 19:53 Clear 37 2.8 29 -1.7 73 73 ESE 14 22 29.85 1011 10 16.09344 0 0
8:53 pm 20:53 Clear 36 2.2 29 -1.7 76 76 E 13 20 29.83 1010 10 16.09344 0 0
9:53 pm 21:53 Clear 34 1.1 28 -2.2 79 79 E 12 19 29.8 1009 10 16.09344 0 0
10:53 pm 22:53 Clear 31 -0.6 28 -2.2 89 89 E 9 15 29.8 1009 10 16.09344 0 0
11:53 pm 23:53 Clear 31 -0.6 29 -1.7 92 92 ESE 10 17 29.77 1008 10 16.09344 0 0

Powered by AerisWeather